createdAt,value
2019-02-23T00:00:34.167Z,11.10
2019-02-23T00:03:05.103Z,11.73
2019-02-23T00:05:35.477Z,12.17
2019-02-23T00:08:04.833Z,11.23
2019-02-23T00:10:34.139Z,12.13
2019-02-23T00:13:03.447Z,12.27
2019-02-23T00:15:32.746Z,12.83
2019-02-23T00:18:02.047Z,10.83
2019-02-23T00:20:31.358Z,10.23
2019-02-23T00:23:00.653Z,11.77
2019-02-23T00:25:29.979Z,11.80
2019-02-23T00:27:59.288Z,10.13
2019-02-23T00:30:29.676Z,10.10
2019-02-23T00:32:58.975Z,11.10
2019-02-23T00:35:28.283Z,11.30
2019-02-23T00:37:57.603Z,10.00
2019-02-23T00:40:26.934Z,10.43
2019-02-23T00:42:56.226Z,10.23
2019-02-23T00:45:25.543Z,8.20
2019-02-23T00:47:54.848Z,9.77
2019-02-23T00:50:24.160Z,10.20
2019-02-23T00:52:53.456Z,10.70
2019-02-23T00:55:22.847Z,10.87
2019-02-23T00:57:52.153Z,9.97
2019-02-23T01:00:21.459Z,10.17
2019-02-23T01:02:50.763Z,13.13
2019-02-23T01:05:20.096Z,10.13
2019-02-23T01:07:49.387Z,8.87
2019-02-23T01:10:19.561Z,11.77
2019-02-23T01:12:49.184Z,10.73
2019-02-23T01:15:19.167Z,10.53
2019-02-23T01:17:48.470Z,10.67
2019-02-23T01:20:17.862Z,9.90
2019-02-23T01:22:47.230Z,11.93
2019-02-23T01:25:16.698Z,9.97
2019-02-23T01:27:46.022Z,9.37
2019-02-23T01:30:15.334Z,11.47
2019-02-23T01:32:44.642Z,9.63
2019-02-23T01:35:14.043Z,13.23
2019-02-23T01:37:43.383Z,11.27
2019-02-23T01:40:12.687Z,10.80
2019-02-23T01:42:41.991Z,12.77
2019-02-23T01:45:11.565Z,11.17
2019-02-23T01:47:40.875Z,10.07
2019-02-23T01:50:11.515Z,11.90
2019-02-23T01:52:40.811Z,9.83
2019-02-23T01:55:10.115Z,11.10
2019-02-23T01:57:39.414Z,9.67
2019-02-23T02:00:11.756Z,10.43
2019-02-23T02:02:41.231Z,13.10
2019-02-23T02:05:10.799Z,11.40
2019-02-23T02:07:40.279Z,13.03
2019-02-23T02:10:10.216Z,12.97
2019-02-23T02:12:39.523Z,12.63
2019-02-23T02:15:12.238Z,13.50
2019-02-23T02:17:41.540Z,13.60
2019-02-23T02:20:11.626Z,12.73
2019-02-23T02:22:41.247Z,12.73
2019-02-23T02:25:10.710Z,12.93
2019-02-23T02:27:40.019Z,14.27
2019-02-23T02:30:11.085Z,12.77
2019-02-23T02:32:40.392Z,16.53
2019-02-23T02:35:10.838Z,13.13
2019-02-23T02:37:40.170Z,11.90
2019-02-23T02:40:10.019Z,14.40
2019-02-23T02:42:39.449Z,14.10
2019-02-23T02:45:10.731Z,14.90
2019-02-23T02:47:40.051Z,13.93
2019-02-23T02:50:23.114Z,15.03
2019-02-23T02:52:41.183Z,13.87
2019-02-23T02:55:10.500Z,14.00
2019-02-23T02:57:39.819Z,14.10
2019-02-23T03:00:11.848Z,13.40
2019-02-23T03:02:42.118Z,13.27
2019-02-23T03:05:11.659Z,11.77
2019-02-23T03:07:41.125Z,15.40
2019-02-23T03:10:10.455Z,15.53
2019-02-23T03:12:39.739Z,16.30
2019-02-23T03:15:09.112Z,13.20
2019-02-23T03:17:38.422Z,14.17
2019-02-23T03:20:08.722Z,15.37
2019-02-23T03:22:38.973Z,15.53
2019-02-23T03:25:08.344Z,16.83
2019-02-23T03:27:37.650Z,13.73
2019-02-23T03:30:09.718Z,16.37
2019-02-23T03:32:39.100Z,14.23
2019-02-23T03:35:08.476Z,16.80
2019-02-23T03:37:37.766Z,16.03
2019-02-23T03:40:08.724Z,14.80
2019-02-23T03:42:38.997Z,15.17
2019-02-23T03:45:08.531Z,15.13
2019-02-23T03:47:38.020Z,15.17
2019-02-23T03:50:07.997Z,15.53
2019-02-23T03:52:37.423Z,14.43
2019-02-23T03:55:06.911Z,15.80
2019-02-23T03:57:36.288Z,15.77
2019-02-23T04:00:08.745Z,15.43
2019-02-23T04:02:38.066Z,16.97
2019-02-23T04:05:07.374Z,15.57
2019-02-23T04:07:36.699Z,18.47
2019-02-23T04:10:07.431Z,17.17
2019-02-23T04:12:36.754Z,16.23
2019-02-23T04:15:07.015Z,17.67
2019-02-23T04:17:36.391Z,15.23
2019-02-23T04:20:07.640Z,18.70
2019-02-23T04:22:36.962Z,17.40
2019-02-23T04:25:07.993Z,15.90
2019-02-23T04:27:37.313Z,18.97
2019-02-23T04:30:08.812Z,16.33
2019-02-23T04:32:38.091Z,16.97
2019-02-23T04:35:08.364Z,16.47
2019-02-23T04:37:37.674Z,16.60
2019-02-23T04:40:07.646Z,17.17
2019-02-23T04:42:36.954Z,16.37
2019-02-23T04:45:07.605Z,19.23
2019-02-23T04:47:36.907Z,19.63
2019-02-23T04:50:09.542Z,19.90
2019-02-23T04:52:38.858Z,18.53
2019-02-23T04:55:08.984Z,17.87
2019-02-23T04:57:38.315Z,18.37
2019-02-23T05:00:13.390Z,21.80
2019-02-23T05:02:42.705Z,20.77
2019-02-23T05:05:12.368Z,22.87
2019-02-23T05:07:41.677Z,22.70
2019-02-23T05:10:10.998Z,20.13
2019-02-23T05:12:40.408Z,19.77
2019-02-23T05:15:10.829Z,20.33
2019-02-23T05:17:40.143Z,20.00
2019-02-23T05:20:09.465Z,19.13
2019-02-23T05:22:38.868Z,19.63
2019-02-23T05:25:08.176Z,21.17
2019-02-23T05:27:37.513Z,18.47
2019-02-23T05:30:09.961Z,19.30
2019-02-23T05:32:39.297Z,19.37
2019-02-23T05:35:12.849Z,19.60
2019-02-23T05:37:42.161Z,20.57
2019-02-23T05:40:14.251Z,21.87
2019-02-23T05:42:43.554Z,22.63
2019-02-23T05:45:12.998Z,20.00
2019-02-23T05:47:42.333Z,21.03
2019-02-23T05:50:11.634Z,20.80
2019-02-23T05:52:40.951Z,23.30
2019-02-23T05:55:10.278Z,22.37
2019-02-23T05:57:39.589Z,23.33
2019-02-23T06:00:13.563Z,21.70
2019-02-23T06:02:45.070Z,25.30
2019-02-23T06:05:13.928Z,22.67
2019-02-23T06:07:43.245Z,22.17
2019-02-23T06:10:12.667Z,22.80
2019-02-23T06:12:43.092Z,21.67
2019-02-23T06:15:13.074Z,22.07
2019-02-23T06:17:42.422Z,22.80
2019-02-23T06:20:11.784Z,22.73
2019-02-23T06:22:41.154Z,24.80
2019-02-23T06:25:10.464Z,25.20
2019-02-23T06:27:39.829Z,23.93
2019-02-23T06:30:11.818Z,24.80
2019-02-23T06:32:41.158Z,23.33
2019-02-23T06:35:10.726Z,23.77
2019-02-23T06:37:40.067Z,24.40
2019-02-23T06:40:10.793Z,23.53
2019-02-23T06:42:41.076Z,22.93
2019-02-23T06:45:12.108Z,23.17
2019-02-23T06:47:41.423Z,26.13
2019-02-23T06:50:10.731Z,25.00
2019-02-23T06:52:40.056Z,24.23
2019-02-23T06:55:09.383Z,24.40
2019-02-23T06:57:38.690Z,22.90
2019-02-23T07:00:11.075Z,22.90
2019-02-23T07:02:40.379Z,24.27
2019-02-23T07:05:09.763Z,25.40
2019-02-23T07:07:39.081Z,25.33
2019-02-23T07:10:11.435Z,23.63
2019-02-23T07:12:40.739Z,22.57
2019-02-23T07:15:11.030Z,32.33
2019-02-23T07:17:40.398Z,26.27
2019-02-23T07:20:10.767Z,24.20
2019-02-23T07:22:40.071Z,22.70
2019-02-23T07:25:16.237Z,25.07
2019-02-23T07:27:45.531Z,25.53
2019-02-23T07:30:15.011Z,22.73
2019-02-23T07:32:44.319Z,31.07
2019-02-23T07:35:14.592Z,25.20
2019-02-23T07:37:44.159Z,22.37
2019-02-23T07:40:15.011Z,23.93
2019-02-23T07:42:44.329Z,26.03
2019-02-23T07:48:08.282Z,24.23
2019-02-23T07:50:37.623Z,25.80
2019-02-23T07:53:06.935Z,29.80
2019-02-23T07:55:36.309Z,27.87
2019-02-23T07:58:05.611Z,27.23
2019-02-23T08:00:34.918Z,30.50
2019-02-23T08:06:02.351Z,23.10
2019-02-23T08:08:31.651Z,22.50
2019-02-23T08:11:01.221Z,25.50
2019-02-23T08:13:30.578Z,23.57
2019-02-23T08:15:59.975Z,26.23
2019-02-23T08:18:29.262Z,24.10
2019-02-23T08:20:58.577Z,25.60
2019-02-23T08:23:27.874Z,22.47
2019-02-23T08:25:57.212Z,24.23
2019-02-23T08:28:26.518Z,31.93
2019-02-23T08:30:55.840Z,23.27
2019-02-23T08:33:25.141Z,24.27
2019-02-23T08:35:54.447Z,23.97
2019-02-23T08:38:23.736Z,25.57
2019-02-23T08:40:53.062Z,24.63
2019-02-23T08:43:22.467Z,21.70
2019-02-23T08:45:51.784Z,25.93
2019-02-23T08:48:21.089Z,23.23
2019-02-23T08:50:50.417Z,22.00
2019-02-23T08:53:20.771Z,23.23
2019-02-23T08:55:50.203Z,23.00
2019-02-23T08:58:20.562Z,22.73
2019-02-23T09:00:49.892Z,22.77
2019-02-23T09:03:19.188Z,26.60
2019-02-23T09:05:49.586Z,21.73
2019-02-23T09:08:18.906Z,28.07
2019-02-23T09:10:48.311Z,23.37
2019-02-23T09:13:17.626Z,24.83
2019-02-23T09:15:46.970Z,24.13
2019-02-23T09:18:16.331Z,24.90
2019-02-23T09:20:45.652Z,22.20
2019-02-23T09:23:14.958Z,25.47
2019-02-23T09:25:44.265Z,21.70
2019-02-23T09:28:13.589Z,24.87
2019-02-23T09:30:42.978Z,29.40
2019-02-23T09:33:12.266Z,26.60
2019-02-23T09:35:41.655Z,28.73
2019-02-23T09:38:10.985Z,24.27
2019-02-23T09:40:40.381Z,26.90
2019-02-23T09:43:09.672Z,40.37
2019-02-23T09:45:39.006Z,26.67
2019-02-23T09:48:08.323Z,25.20
2019-02-23T09:50:37.647Z,24.00
2019-02-23T09:53:11.137Z,24.50
2019-02-23T09:55:37.950Z,34.93
2019-02-23T09:58:07.253Z,23.80
2019-02-23T10:00:36.573Z,24.07
2019-02-23T10:03:05.862Z,25.87
2019-02-23T10:05:35.201Z,22.80
2019-02-23T10:08:04.506Z,22.80
2019-02-23T10:10:33.847Z,20.40
2019-02-23T10:13:03.155Z,23.50
2019-02-23T10:15:32.522Z,23.43
2019-02-23T10:18:01.815Z,23.00
2019-02-23T10:20:31.157Z,22.40
2019-02-23T10:23:01.409Z,22.97
2019-02-23T10:25:30.754Z,22.40
2019-02-23T10:28:00.111Z,18.77
2019-02-23T10:30:29.445Z,19.80
2019-02-23T10:32:58.785Z,19.80
2019-02-23T10:35:28.126Z,22.77
2019-02-23T10:37:57.500Z,21.37
2019-02-23T10:40:26.817Z,22.50
2019-02-23T10:42:56.147Z,19.23
2019-02-23T10:45:25.443Z,20.23
2019-02-23T10:47:54.762Z,19.67
2019-02-23T10:50:25.036Z,17.97
2019-02-23T10:52:54.366Z,20.57
2019-02-23T10:55:23.663Z,18.93
2019-02-23T10:57:53.115Z,18.00
2019-02-23T11:00:22.810Z,15.43
2019-02-23T11:02:52.138Z,20.57
2019-02-23T11:05:21.670Z,19.03
2019-02-23T11:07:50.999Z,16.57
2019-02-23T11:10:20.648Z,16.63
2019-02-23T11:12:49.972Z,16.13
2019-02-23T11:15:20.445Z,17.53
2019-02-23T11:17:49.797Z,17.20
2019-02-23T11:23:09.295Z,15.60
2019-02-23T11:25:38.749Z,16.83
2019-02-23T11:28:08.379Z,17.33
2019-02-23T11:30:37.769Z,17.23
2019-02-23T11:33:07.209Z,15.43
2019-02-23T11:35:36.604Z,15.67
2019-02-23T11:38:07.192Z,15.50
2019-02-23T11:40:36.698Z,16.27
2019-02-23T11:43:08.302Z,14.00
2019-02-23T11:45:37.884Z,16.93
2019-02-23T11:48:07.443Z,16.87
2019-02-23T11:50:36.837Z,16.10
2019-02-23T11:53:06.236Z,13.70
2019-02-23T11:55:35.650Z,15.07
2019-02-23T11:58:05.079Z,15.63
2019-02-23T12:00:34.426Z,15.87
2019-02-23T12:03:03.957Z,14.20
2019-02-23T12:05:33.291Z,14.20
2019-02-23T12:08:02.716Z,16.57
2019-02-23T12:10:32.056Z,17.93
2019-02-23T12:13:01.471Z,16.23
2019-02-23T12:15:30.836Z,16.40
2019-02-23T12:18:00.198Z,14.67
2019-02-23T12:20:29.575Z,15.83
2019-02-23T12:22:58.974Z,15.80
2019-02-23T12:25:28.302Z,15.60
2019-02-23T12:27:58.661Z,16.67
2019-02-23T12:30:28.021Z,17.10
2019-02-23T12:32:57.481Z,14.73
2019-02-23T12:35:32.992Z,17.10
2019-02-23T12:38:02.514Z,18.67
2019-02-23T12:40:32.932Z,17.53
2019-02-23T12:43:02.576Z,16.57
2019-02-23T12:45:32.047Z,14.50
2019-02-23T12:48:01.395Z,13.93
2019-02-23T12:50:33.281Z,16.30
2019-02-23T12:53:01.867Z,14.40
2019-02-23T12:55:32.309Z,14.10
2019-02-23T12:58:01.694Z,17.97
2019-02-23T13:00:32.579Z,15.50
2019-02-23T13:03:02.098Z,16.57
2019-02-23T13:05:31.840Z,21.57
2019-02-23T13:08:03.459Z,18.77
2019-02-23T13:10:32.893Z,15.93
2019-02-23T13:13:17.204Z,14.67
2019-02-23T13:15:55.378Z,13.27
2019-02-23T13:18:53.806Z,12.63
2019-02-23T13:21:41.807Z,13.70
2019-02-23T13:24:37.186Z,12.20
2019-02-23T13:27:15.647Z,14.97
2019-02-23T13:30:12.211Z,13.17
2019-02-23T13:32:45.031Z,15.43
2019-02-23T13:35:32.779Z,13.93
2019-02-23T13:38:05.215Z,12.83
2019-02-23T13:40:55.506Z,11.93
2019-02-23T13:43:27.932Z,11.83
2019-02-23T13:46:09.295Z,14.63
2019-02-23T13:48:57.855Z,12.13
2019-02-23T13:51:54.034Z,13.07
2019-02-23T13:54:38.642Z,12.80
2019-02-23T13:57:22.631Z,12.97
2019-02-23T13:59:57.632Z,19.13
2019-02-23T14:02:34.203Z,12.63
2019-02-23T14:05:18.802Z,12.40
2019-02-23T14:07:56.789Z,11.20
2019-02-23T14:10:32.034Z,12.47
2019-02-23T14:13:07.421Z,11.77
2019-02-23T14:15:51.681Z,16.03
2019-02-23T14:18:52.782Z,11.00
2019-02-23T14:21:28.307Z,14.10
2019-02-23T14:24:08.632Z,12.43
2019-02-23T14:27:10.983Z,12.63
2019-02-23T14:29:54.477Z,12.20
2019-02-23T14:32:35.699Z,12.87
2019-02-23T14:35:17.248Z,13.80
2019-02-23T14:38:21.557Z,14.17
2019-02-23T14:40:56.478Z,18.10
2019-02-23T14:43:29.908Z,20.20
2019-02-23T14:46:31.325Z,12.60
2019-02-23T14:49:11.480Z,17.40
2019-02-23T14:52:02.797Z,12.03
2019-02-23T14:54:47.382Z,12.33
2019-02-23T14:57:42.432Z,10.90
2019-02-23T15:00:31.341Z,10.60
2019-02-23T15:03:26.792Z,11.97
2019-02-23T15:06:21.318Z,13.00
2019-02-23T15:08:53.755Z,24.17
2019-02-23T15:11:51.863Z,27.50
2019-02-23T15:14:51.224Z,13.23
2019-02-23T15:17:23.714Z,16.30
2019-02-23T15:20:20.018Z,16.50
2019-02-23T15:23:24.105Z,12.13
2019-02-23T15:26:32.965Z,11.70
2019-02-23T15:29:26.426Z,11.80
2019-02-23T15:32:04.785Z,10.53
2019-02-23T15:35:03.317Z,12.17
2019-02-23T15:37:35.739Z,12.53
2019-02-23T15:40:21.926Z,13.30
2019-02-23T15:43:03.448Z,12.60
2019-02-23T15:45:51.066Z,18.80
2019-02-23T15:48:38.343Z,12.33
2019-02-23T15:51:13.568Z,13.87
2019-02-23T15:53:43.036Z,12.63
2019-02-23T15:56:12.467Z,15.93
2019-02-23T15:58:42.946Z,13.70
2019-02-23T16:01:12.291Z,13.20
2019-02-23T16:03:42.742Z,13.87
2019-02-23T16:06:12.130Z,12.70
2019-02-23T16:08:41.569Z,17.73
2019-02-23T16:11:11.894Z,14.87
2019-02-23T16:13:41.295Z,16.50
2019-02-23T16:16:10.664Z,13.10
2019-02-23T16:18:40.181Z,13.10
2019-02-23T16:21:09.555Z,18.57
2019-02-23T16:23:38.984Z,13.67
2019-02-23T16:26:08.356Z,11.03
2019-02-23T16:28:37.801Z,12.53
2019-02-23T16:31:07.246Z,13.07
2019-02-23T16:33:36.766Z,17.37
2019-02-23T16:36:06.141Z,14.47
2019-02-23T16:38:38.506Z,17.20
2019-02-23T16:41:07.884Z,17.47
2019-02-23T16:43:38.175Z,17.00
2019-02-23T16:46:07.562Z,19.60
2019-02-23T16:48:36.935Z,20.97
2019-02-23T16:51:06.481Z,33.30
2019-02-23T16:53:35.911Z,16.47
2019-02-23T16:56:06.250Z,14.63
2019-02-23T16:58:36.412Z,15.67
2019-02-23T17:01:05.872Z,22.37
2019-02-23T17:03:35.286Z,21.03
2019-02-23T17:06:04.732Z,29.97
2019-02-23T17:08:34.085Z,42.10
2019-02-23T17:11:03.445Z,37.50
2019-02-23T17:13:32.884Z,72.37
2019-02-23T17:16:02.311Z,44.63
2019-02-23T17:18:31.670Z,31.47
2019-02-23T17:21:01.041Z,19.77
2019-02-23T17:23:30.413Z,19.03
2019-02-23T17:26:04.318Z,20.50
2019-02-23T17:28:30.833Z,21.37
2019-02-23T17:31:06.166Z,20.23
2019-02-23T17:33:35.542Z,20.40
2019-02-23T17:36:05.046Z,16.30
2019-02-23T17:38:34.506Z,16.00
2019-02-23T17:41:04.835Z,16.23
2019-02-23T17:43:35.251Z,13.80
2019-02-23T17:46:04.631Z,26.60
2019-02-23T17:48:34.089Z,16.50
2019-02-23T17:51:13.865Z,32.80
2019-02-23T17:53:43.232Z,29.60
2019-02-23T17:56:14.113Z,21.53
2019-02-23T17:58:43.714Z,16.80
2019-02-23T18:01:16.244Z,14.97
2019-02-23T18:03:45.597Z,13.57
2019-02-23T18:06:14.962Z,13.90
2019-02-23T18:08:44.406Z,38.13
2019-02-23T18:11:13.842Z,13.57
2019-02-23T18:13:43.301Z,12.13
2019-02-23T18:16:12.630Z,11.40
2019-02-23T18:18:42.048Z,12.67
2019-02-23T18:21:17.126Z,15.57
2019-02-23T18:23:46.468Z,11.43
2019-02-23T18:26:21.011Z,12.37
2019-02-23T18:28:47.336Z,13.73
2019-02-23T18:31:16.752Z,11.57
2019-02-23T18:33:46.133Z,17.27
2019-02-23T18:36:15.444Z,13.63
2019-02-23T18:38:48.580Z,11.87
2019-02-23T18:41:17.903Z,12.63
2019-02-23T18:43:47.250Z,11.47
2019-02-23T18:46:16.571Z,13.33
2019-02-23T18:48:45.973Z,11.73
2019-02-23T18:51:15.313Z,14.17
2019-02-23T18:53:44.646Z,12.47
2019-02-23T18:56:13.981Z,12.73
2019-02-23T18:58:49.446Z,14.73
2019-02-23T19:01:18.765Z,12.97
2019-02-23T19:03:51.389Z,16.70
2019-02-23T19:06:20.719Z,13.40
2019-02-23T19:08:50.091Z,14.67
2019-02-23T19:11:19.443Z,13.10
2019-02-23T19:13:48.831Z,14.13
2019-02-23T19:16:18.242Z,15.20
2019-02-23T19:18:47.594Z,14.03
2019-02-23T19:21:16.916Z,15.13
2019-02-23T19:23:46.268Z,14.17
2019-02-23T19:26:15.685Z,14.77
2019-02-23T19:28:45.026Z,15.87
2019-02-23T19:31:14.360Z,18.30
2019-02-23T19:33:45.746Z,17.13
2019-02-23T19:36:15.140Z,22.80
2019-02-23T19:38:46.117Z,20.73
2019-02-23T19:41:15.514Z,18.87
2019-02-23T19:43:52.831Z,22.00
2019-02-23T19:46:22.574Z,22.40
2019-02-23T19:48:57.656Z,14.87
2019-02-23T19:51:26.988Z,16.07
2019-02-23T19:53:58.374Z,17.10
2019-02-23T19:56:27.858Z,15.77
2019-02-23T19:58:57.241Z,16.33
2019-02-23T20:01:26.611Z,17.67
2019-02-23T20:03:55.964Z,14.53
2019-02-23T20:06:25.291Z,16.30
2019-02-23T20:09:00.428Z,16.53
2019-02-23T20:11:31.598Z,17.67
2019-02-23T20:14:00.946Z,16.33
2019-02-23T20:16:30.348Z,15.77
2019-02-23T20:19:03.394Z,16.83
2019-02-23T20:21:32.796Z,15.70
2019-02-23T20:24:03.290Z,18.43
2019-02-23T20:26:32.677Z,15.73
2019-02-23T20:29:02.153Z,16.33
2019-02-23T20:31:31.528Z,17.13
2019-02-23T20:34:01.090Z,18.00
2019-02-23T20:36:30.436Z,17.00
2019-02-23T20:38:59.900Z,16.40
2019-02-23T20:41:29.361Z,17.57
2019-02-23T20:43:58.724Z,17.37
2019-02-23T20:46:28.063Z,17.33
2019-02-23T20:48:57.635Z,16.07
2019-02-23T20:51:27.133Z,15.90
2019-02-23T20:53:56.498Z,18.10
2019-02-23T20:56:25.905Z,18.30
2019-02-23T20:58:57.161Z,15.60
2019-02-23T21:01:26.537Z,16.33
2019-02-23T21:03:55.950Z,14.83
2019-02-23T21:06:25.310Z,14.90
2019-02-23T21:09:00.465Z,15.17
2019-02-23T21:11:30.269Z,15.50
2019-02-23T21:13:59.599Z,19.07
2019-02-23T21:16:29.005Z,15.83
2019-02-23T21:18:58.440Z,17.30
2019-02-23T21:21:28.789Z,13.70
2019-02-23T21:23:58.228Z,14.80
2019-02-23T21:26:27.682Z,16.90
2019-02-23T21:28:57.073Z,17.13
2019-02-23T21:31:26.429Z,16.63
2019-02-23T21:33:55.824Z,17.40
2019-02-23T21:36:25.202Z,16.20
2019-02-23T21:38:54.549Z,17.40
2019-02-23T21:41:23.917Z,16.30
2019-02-23T21:43:53.319Z,16.67
2019-02-23T21:46:22.680Z,14.97
2019-02-23T21:48:52.023Z,16.90
2019-02-23T21:51:21.421Z,15.17
2019-02-23T21:53:50.765Z,19.33
2019-02-23T21:56:21.076Z,15.23
2019-02-23T21:58:50.472Z,15.33
2019-02-23T22:01:19.877Z,14.37
2019-02-23T22:03:49.377Z,14.33
2019-02-23T22:06:18.882Z,16.83
2019-02-23T22:08:49.249Z,14.30
2019-02-23T22:11:18.812Z,15.70
2019-02-23T22:13:48.202Z,16.97
2019-02-23T22:16:17.602Z,14.53
2019-02-23T22:18:53.387Z,15.57
2019-02-23T22:21:22.791Z,17.77
2019-02-23T22:23:52.252Z,15.57
2019-02-23T22:26:21.646Z,13.83
2019-02-23T22:28:51.966Z,14.83
2019-02-23T22:31:24.396Z,14.27
2019-02-23T22:33:53.773Z,16.43
2019-02-23T22:36:23.211Z,15.97
2019-02-23T22:38:52.652Z,15.47
2019-02-23T22:41:22.001Z,15.43
2019-02-23T22:43:58.084Z,15.27
2019-02-23T22:46:27.421Z,17.90
2019-02-23T22:49:05.772Z,18.43
2019-02-23T22:51:35.104Z,19.60
2019-02-23T22:54:04.484Z,17.57
2019-02-23T22:56:33.898Z,18.13
2019-02-23T22:59:03.375Z,16.43
2019-02-23T23:01:33.234Z,24.97
2019-02-23T23:04:02.754Z,20.10
2019-02-23T23:06:32.178Z,18.90
2019-02-23T23:09:01.536Z,19.13
2019-02-23T23:11:32.615Z,16.30
2019-02-23T23:14:02.045Z,20.43
2019-02-23T23:16:31.420Z,16.20
2019-02-23T23:19:01.093Z,16.97
2019-02-23T23:21:30.527Z,17.80
2019-02-23T23:23:59.971Z,22.97
2019-02-23T23:26:29.469Z,19.90
2019-02-23T23:28:58.829Z,18.70
2019-02-23T23:31:28.172Z,18.57
2019-02-23T23:33:57.563Z,21.80
2019-02-23T23:36:26.975Z,18.53
2019-02-23T23:39:02.638Z,21.60
2019-02-23T23:41:33.608Z,19.00
2019-02-23T23:44:03.042Z,18.40
2019-02-23T23:46:32.387Z,18.60
2019-02-23T23:49:02.758Z,20.57
2019-02-23T23:51:32.133Z,20.20
2019-02-23T23:54:01.536Z,20.57
2019-02-23T23:56:30.879Z,16.77
2019-02-23T23:59:00.247Z,19.50
